createdAt,value
2022-11-17T00:00:21.168Z,95841.59
2022-11-17T00:02:51.625Z,95847.97
2022-11-17T00:05:20.552Z,95846.25
2022-11-17T00:07:50.293Z,95859.84
2022-11-17T00:10:18.847Z,95868.06
2022-11-17T00:13:04.213Z,95859.28
2022-11-17T00:15:33.063Z,95858.56
2022-11-17T00:18:20.453Z,95854.16
2022-11-17T00:21:06.310Z,95853.47
2022-11-17T00:23:48.671Z,95849.09
2022-11-17T00:26:17.548Z,95835.81
2022-11-17T00:28:46.343Z,95823.34
2022-11-17T00:31:32.092Z,95820.81
2022-11-17T00:34:08.737Z,95829.84
2022-11-17T00:36:39.414Z,95822.78
2022-11-17T00:39:08.424Z,95811.19
2022-11-17T00:41:37.369Z,95814.00
2022-11-17T00:44:06.619Z,95818.53
2022-11-17T00:46:35.379Z,95815.00
2022-11-17T00:49:06.072Z,95808.78
2022-11-17T00:51:34.953Z,95807.94
2022-11-17T00:54:03.878Z,95814.28
2022-11-17T00:56:32.978Z,95817.13
2022-11-17T00:59:01.816Z,95812.75
2022-11-17T01:01:30.745Z,95804.69
2022-11-17T01:04:04.681Z,95803.81
2022-11-17T01:06:36.575Z,95809.19
2022-11-17T01:09:06.163Z,95802.13
2022-11-17T01:11:35.044Z,95800.44
2022-11-17T01:14:03.445Z,95790.66
2022-11-17T01:16:32.342Z,95787.16
2022-11-17T01:19:01.450Z,95786.28
2022-11-17T01:21:30.588Z,95781.06
2022-11-17T01:24:01.845Z,95786.44
2022-11-17T01:26:31.394Z,95790.97
2022-11-17T01:29:00.732Z,95788.28
2022-11-17T01:31:30.293Z,95776.81
2022-11-17T01:33:58.938Z,95768.75
2022-11-17T01:36:28.815Z,95758.16
2022-11-17T01:38:59.828Z,95760.00
2022-11-17T01:41:30.652Z,95755.59
2022-11-17T01:44:00.169Z,95752.09
2022-11-17T01:46:31.279Z,95738.78
2022-11-17T01:49:02.396Z,95738.78
2022-11-17T01:51:31.792Z,95739.78
2022-11-17T01:54:00.686Z,95732.69
2022-11-17T01:56:32.748Z,95734.56
2022-11-17T01:59:04.887Z,95728.31
2022-11-17T02:01:33.958Z,95737.34
2022-11-17T02:04:02.818Z,95736.38
2022-11-17T02:06:34.185Z,95734.66
2022-11-17T02:09:03.160Z,95733.00
2022-11-17T02:11:36.285Z,95730.31
2022-11-17T02:14:05.884Z,95728.59
2022-11-17T02:16:34.257Z,95725.09
2022-11-17T02:19:02.883Z,95729.59
2022-11-17T02:21:44.456Z,95730.56
2022-11-17T02:24:21.630Z,95727.88
2022-11-17T02:27:22.568Z,95732.28
2022-11-17T02:29:54.980Z,95735.22
2022-11-17T02:32:26.164Z,95725.34
2022-11-17T02:34:56.468Z,95734.41
2022-11-17T02:37:29.008Z,95736.25
2022-11-17T02:40:00.585Z,95738.06
2022-11-17T02:42:45.176Z,95740.75
2022-11-17T02:45:16.343Z,95740.91
2022-11-17T02:47:45.024Z,95730.16
2022-11-17T02:50:13.576Z,95738.22
2022-11-17T02:52:42.510Z,95741.88
2022-11-17T02:55:11.696Z,95741.06
2022-11-17T02:57:41.276Z,95737.50
2022-11-17T03:00:12.121Z,95741.16
2022-11-17T03:03:01.269Z,95731.44
2022-11-17T03:05:32.919Z,95727.75
2022-11-17T03:08:08.767Z,95726.06
2022-11-17T03:10:43.161Z,95721.66
2022-11-17T03:13:14.605Z,95716.28
2022-11-17T03:15:50.754Z,95708.22
2022-11-17T03:18:23.676Z,95700.31
2022-11-17T03:20:57.493Z,95693.97
2022-11-17T03:23:27.309Z,95695.09
2022-11-17T03:25:58.124Z,95707.53
2022-11-17T03:28:29.504Z,95706.72
2022-11-17T03:30:58.692Z,95712.06
2022-11-17T03:33:29.047Z,95721.97
2022-11-17T03:35:59.904Z,95721.09
2022-11-17T03:38:31.808Z,95718.41
2022-11-17T03:41:01.045Z,95713.19
2022-11-17T03:43:29.494Z,95715.88
2022-11-17T03:45:59.069Z,95715.88
2022-11-17T03:48:31.516Z,95722.09
2022-11-17T03:51:04.841Z,95724.91
2022-11-17T03:53:34.027Z,95730.28
2022-11-17T03:56:04.893Z,95731.28
2022-11-17T03:58:34.082Z,95731.28
2022-11-17T04:01:03.568Z,95726.88
2022-11-17T04:03:34.705Z,95732.25
2022-11-17T04:06:03.811Z,95726.88
2022-11-17T04:08:32.901Z,95725.06
2022-11-17T04:11:18.284Z,95718.81
2022-11-17T04:14:04.112Z,95718.13
2022-11-17T04:16:32.840Z,95732.41
2022-11-17T04:19:03.099Z,95728.88
2022-11-17T04:21:31.955Z,95731.53
2022-11-17T04:24:00.238Z,95727.19
2022-11-17T04:26:46.594Z,95727.19
2022-11-17T04:29:15.532Z,95721.81
2022-11-17T04:31:44.340Z,95729.00
2022-11-17T04:34:14.667Z,95723.63
2022-11-17T04:36:45.225Z,95725.44
2022-11-17T04:39:14.328Z,95712.16
2022-11-17T04:42:02.217Z,95717.38
2022-11-17T04:44:31.793Z,95717.38
2022-11-17T04:47:03.231Z,95706.63
2022-11-17T04:49:33.859Z,95709.31
2022-11-17T04:52:02.537Z,95705.81
2022-11-17T04:54:31.113Z,95707.78
2022-11-17T04:57:00.073Z,95714.00
2022-11-17T04:59:28.842Z,95716.66
2022-11-17T05:02:02.537Z,95714.00
2022-11-17T05:04:53.129Z,95715.84
2022-11-17T05:07:22.036Z,95725.72
2022-11-17T05:09:50.824Z,95731.97
2022-11-17T05:12:36.084Z,95729.38
2022-11-17T05:15:05.140Z,95717.81
2022-11-17T05:17:32.458Z,95715.13
2022-11-17T05:20:03.143Z,95709.78
2022-11-17T05:22:48.826Z,95721.06
2022-11-17T05:25:17.895Z,95705.94
2022-11-17T05:27:46.869Z,95705.94
2022-11-17T05:30:16.317Z,95703.13
2022-11-17T05:32:45.116Z,95703.13
2022-11-17T05:35:15.561Z,95703.00
2022-11-17T05:37:44.207Z,95700.34
2022-11-17T05:40:13.702Z,95696.63
2022-11-17T05:42:42.341Z,95701.03
2022-11-17T05:45:11.636Z,95703.56
2022-11-17T05:47:40.517Z,95703.56
2022-11-17T05:50:09.477Z,95707.13
2022-11-17T05:52:39.942Z,95711.38
2022-11-17T05:55:09.669Z,95701.44
2022-11-17T05:57:38.300Z,95705.00
2022-11-17T06:00:09.036Z,95704.84
2022-11-17T06:02:44.892Z,95703.00
2022-11-17T06:05:19.799Z,95700.31
2022-11-17T06:07:51.220Z,95703.00
2022-11-17T06:10:20.097Z,95703.72
2022-11-17T06:12:48.961Z,95699.22
2022-11-17T06:15:18.080Z,95704.44
2022-11-17T06:17:48.105Z,95698.19
2022-11-17T06:20:19.800Z,95701.75
2022-11-17T06:22:49.979Z,95699.06
2022-11-17T06:25:18.964Z,95699.91
2022-11-17T06:27:47.794Z,95701.75
2022-11-17T06:30:16.460Z,95700.75
2022-11-17T06:32:45.206Z,95694.38
2022-11-17T06:35:14.506Z,95702.59
2022-11-17T06:37:43.201Z,95706.97
2022-11-17T06:40:14.336Z,95694.38
2022-11-17T06:43:00.400Z,95689.03
2022-11-17T06:45:29.263Z,95698.78
2022-11-17T06:47:58.103Z,95705.84
2022-11-17T06:50:26.749Z,95710.34
2022-11-17T06:52:58.583Z,95713.91
2022-11-17T06:55:29.720Z,95707.13
2022-11-17T06:58:02.195Z,95705.44
2022-11-17T07:00:31.183Z,95696.38
2022-11-17T07:03:03.623Z,95704.28
2022-11-17T07:05:32.875Z,95710.34
2022-11-17T07:08:01.691Z,95708.53
2022-11-17T07:10:32.301Z,95713.63
2022-11-17T07:13:01.186Z,95716.16
2022-11-17T07:15:30.123Z,95717.84
2022-11-17T07:17:59.876Z,95706.97
2022-11-17T07:20:28.824Z,95710.50
2022-11-17T07:23:00.458Z,95706.13
2022-11-17T07:25:29.151Z,95706.97
2022-11-17T07:28:02.169Z,95714.03
2022-11-17T07:30:31.336Z,95718.44
2022-11-17T07:33:00.593Z,95717.44
2022-11-17T07:35:29.741Z,95718.13
2022-11-17T07:38:00.091Z,95696.66
2022-11-17T07:40:29.176Z,95692.13
2022-11-17T07:42:58.084Z,95688.44
2022-11-17T07:45:31.751Z,95692.13
2022-11-17T07:48:01.678Z,95697.50
2022-11-17T07:50:30.605Z,95679.66
2022-11-17T07:52:59.279Z,95691.13
2022-11-17T07:55:28.228Z,95694.50
2022-11-17T07:57:57.795Z,95697.19
2022-11-17T08:00:28.553Z,95707.94
2022-11-17T08:02:57.710Z,95711.34
2022-11-17T08:05:30.821Z,95705.25
2022-11-17T08:07:59.529Z,95698.06
2022-11-17T08:10:31.683Z,95699.88
2022-11-17T08:13:01.420Z,95693.81
2022-11-17T08:15:32.442Z,95693.81
2022-11-17T08:18:01.720Z,95681.38
2022-11-17T08:20:30.845Z,95680.53
2022-11-17T08:22:59.321Z,95685.75
2022-11-17T08:25:28.460Z,95692.97
2022-11-17T08:27:58.070Z,95691.97
2022-11-17T08:30:27.243Z,95692.84
2022-11-17T08:32:57.860Z,95688.31
2022-11-17T08:35:26.762Z,95681.09
2022-11-17T08:37:55.680Z,95681.94
2022-11-17T08:40:25.048Z,95671.19
2022-11-17T08:43:00.597Z,95671.19
2022-11-17T08:45:30.445Z,95672.06
2022-11-17T08:48:00.939Z,95672.06
2022-11-17T08:50:29.653Z,95674.72
2022-11-17T08:52:58.317Z,95680.09
2022-11-17T08:55:27.022Z,95678.28
2022-11-17T08:57:56.013Z,95672.91
2022-11-17T09:00:25.343Z,95671.19
2022-11-17T09:02:53.958Z,95671.03
2022-11-17T09:05:25.279Z,95672.06
2022-11-17T09:07:53.935Z,95666.69
2022-11-17T09:10:22.692Z,95677.28
2022-11-17T09:12:51.353Z,95673.72
2022-11-17T09:15:20.301Z,95675.44
2022-11-17T09:17:48.992Z,95682.66
2022-11-17T09:20:17.809Z,95684.34
2022-11-17T09:22:48.143Z,95671.91
2022-11-17T09:25:17.032Z,95673.59
2022-11-17T09:27:45.884Z,95670.06
2022-11-17T09:30:16.228Z,95669.22
2022-11-17T09:32:45.108Z,95672.75
2022-11-17T09:35:14.295Z,95670.91
2022-11-17T09:37:43.165Z,95677.13
2022-11-17T09:40:15.804Z,95682.50
2022-11-17T09:42:44.693Z,95677.97
2022-11-17T09:45:15.620Z,95683.34
2022-11-17T09:47:45.485Z,95684.34
2022-11-17T09:50:20.263Z,95690.56
2022-11-17T09:52:54.897Z,95691.41
2022-11-17T09:55:33.726Z,95681.50
2022-11-17T09:58:08.843Z,95678.97
2022-11-17T10:00:37.782Z,95684.19
2022-11-17T10:03:12.181Z,95682.50
2022-11-17T10:05:41.096Z,95686.88
2022-11-17T10:08:10.928Z,95680.66
2022-11-17T10:10:44.522Z,95680.50
2022-11-17T10:13:16.202Z,95683.19
2022-11-17T10:15:47.579Z,95680.50
2022-11-17T10:18:17.228Z,95671.63
2022-11-17T10:20:46.344Z,95668.94
2022-11-17T10:23:16.398Z,95660.88
2022-11-17T10:25:47.420Z,95660.88
2022-11-17T10:28:27.904Z,95650.13
2022-11-17T10:30:57.628Z,95642.91
2022-11-17T10:33:35.318Z,95639.38
2022-11-17T10:36:04.224Z,95649.28
2022-11-17T10:38:34.536Z,95653.66
2022-11-17T10:41:04.529Z,95650.97
2022-11-17T10:43:34.999Z,95645.59
2022-11-17T10:46:05.672Z,95638.38
2022-11-17T10:48:35.229Z,95642.91
2022-11-17T10:51:04.350Z,95642.91
2022-11-17T10:53:44.824Z,95659.72
2022-11-17T10:56:16.928Z,95671.31
2022-11-17T10:59:03.305Z,95659.59
2022-11-17T11:01:34.040Z,95651.53
2022-11-17T11:04:02.840Z,95648.00
2022-11-17T11:06:31.552Z,95638.94
2022-11-17T11:09:01.671Z,95630.88
2022-11-17T11:11:44.147Z,95620.00
2022-11-17T11:14:18.436Z,95625.38
2022-11-17T11:16:48.663Z,95622.53
2022-11-17T11:19:18.439Z,95627.91
2022-11-17T11:21:55.335Z,95621.53
2022-11-17T11:24:25.697Z,95623.38
2022-11-17T11:27:02.590Z,95631.28
2022-11-17T11:29:39.177Z,95632.97
2022-11-17T11:32:16.880Z,95630.28
2022-11-17T11:34:58.317Z,95625.78
2022-11-17T11:37:28.800Z,95629.31
2022-11-17T11:40:00.780Z,95619.41
2022-11-17T11:42:57.451Z,95622.09
2022-11-17T11:45:32.949Z,95611.34
2022-11-17T11:48:25.447Z,95608.66
2022-11-17T11:50:56.088Z,95593.38
2022-11-17T11:53:29.467Z,95595.09
2022-11-17T11:56:06.476Z,95596.91
2022-11-17T11:58:37.016Z,95587.03
2022-11-17T12:01:06.612Z,95575.41
2022-11-17T12:03:36.736Z,95578.97
2022-11-17T12:06:29.648Z,95579.81
2022-11-17T12:09:04.212Z,95588.56
2022-11-17T12:11:50.323Z,95585.88
2022-11-17T12:14:20.301Z,95592.09
2022-11-17T12:16:48.616Z,95586.72
2022-11-17T12:19:50.096Z,95593.78
2022-11-17T12:22:25.805Z,95596.47
2022-11-17T12:24:56.713Z,95593.78
2022-11-17T12:27:45.022Z,95584.88
2022-11-17T12:30:53.103Z,95587.41
2022-11-17T12:33:22.872Z,95595.47
2022-11-17T12:36:30.788Z,95587.41
2022-11-17T12:38:59.556Z,95583.91
2022-11-17T12:42:10.325Z,95590.94
2022-11-17T12:44:50.064Z,95593.63
2022-11-17T12:47:22.580Z,95588.25
2022-11-17T12:50:01.408Z,95589.13
2022-11-17T12:52:33.583Z,95594.50
2022-11-17T12:55:04.372Z,95589.13
2022-11-17T12:57:33.645Z,95596.31
2022-11-17T13:00:07.803Z,95594.50
2022-11-17T13:02:59.270Z,95591.81
2022-11-17T13:05:30.430Z,95585.56
2022-11-17T13:08:23.409Z,95591.81
2022-11-17T13:10:51.787Z,95593.63
2022-11-17T13:13:20.775Z,95603.53
2022-11-17T13:15:52.565Z,95612.44
2022-11-17T13:18:33.222Z,95620.50
2022-11-17T13:21:03.044Z,95618.84
2022-11-17T13:23:33.364Z,95621.38
2022-11-17T13:26:12.109Z,95621.53
2022-11-17T13:28:40.380Z,95632.13
2022-11-17T13:31:14.144Z,95635.78
2022-11-17T13:33:42.384Z,95628.56
2022-11-17T13:36:19.816Z,95630.28
2022-11-17T13:38:49.296Z,95633.94
2022-11-17T13:41:18.392Z,95643.13
2022-11-17T13:43:47.036Z,95636.94
2022-11-17T13:46:15.342Z,95643.13
2022-11-17T13:48:44.469Z,95636.94
2022-11-17T13:51:39.912Z,95630.72
2022-11-17T13:54:15.194Z,95630.72
2022-11-17T13:56:44.257Z,95626.31
2022-11-17T13:59:22.523Z,95631.69
2022-11-17T14:01:51.334Z,95641.47
2022-11-17T14:04:22.646Z,95643.28
2022-11-17T14:06:56.993Z,95645.97
2022-11-17T14:09:25.527Z,95649.69
2022-11-17T14:11:53.818Z,95654.03
2022-11-17T14:14:29.612Z,95656.88
2022-11-17T14:16:59.373Z,95658.72
2022-11-17T14:19:31.141Z,95668.34
2022-11-17T14:22:01.877Z,95679.09
2022-11-17T14:24:30.367Z,95679.25
2022-11-17T14:26:58.710Z,95681.06
2022-11-17T14:29:28.029Z,95688.97
2022-11-17T14:31:56.998Z,95694.50
2022-11-17T14:34:25.261Z,95713.16
2022-11-17T14:36:55.175Z,95715.00
2022-11-17T14:39:24.884Z,95724.91
2022-11-17T14:41:53.116Z,95708.91
2022-11-17T14:44:22.045Z,95718.53
2022-11-17T14:46:50.445Z,95717.84
2022-11-17T14:49:18.752Z,95716.00
2022-11-17T14:51:49.579Z,95701.72
2022-11-17T14:54:18.112Z,95702.56
2022-11-17T14:56:48.026Z,95707.09
2022-11-17T14:59:16.696Z,95704.41
2022-11-17T15:01:45.635Z,95705.25
2022-11-17T15:04:48.391Z,95696.34
2022-11-17T15:07:03.466Z,95697.19
2022-11-17T15:09:32.152Z,95718.69
2022-11-17T15:12:01.927Z,95714.75
2022-11-17T15:14:30.628Z,95714.16
2022-11-17T15:16:58.928Z,95717.69
2022-11-17T15:19:27.320Z,95727.47
2022-11-17T15:21:55.744Z,95731.13
2022-11-17T15:24:23.956Z,95730.28
2022-11-17T15:26:52.272Z,95729.47
2022-11-17T15:29:21.913Z,95731.28
2022-11-17T15:31:50.289Z,95724.09
2022-11-17T15:34:20.444Z,95720.53
2022-11-17T15:36:49.296Z,95729.56
2022-11-17T15:39:18.379Z,95736.81
2022-11-17T15:41:47.168Z,95729.72
2022-11-17T15:44:15.688Z,95745.00
2022-11-17T15:46:47.628Z,95736.22
2022-11-17T15:49:16.643Z,95736.22
2022-11-17T15:51:45.244Z,95736.38
2022-11-17T15:54:19.931Z,95737.22
2022-11-17T15:56:48.472Z,95736.38
2022-11-17T15:59:17.017Z,95728.31
2022-11-17T16:01:46.939Z,95730.13
2022-11-17T16:04:16.165Z,95726.63
2022-11-17T16:06:45.138Z,95719.41
2022-11-17T16:09:13.591Z,95715.88
2022-11-17T16:11:42.254Z,95735.50
2022-11-17T16:14:10.584Z,95729.31
2022-11-17T16:16:39.615Z,95732.97
2022-11-17T16:19:09.800Z,95729.31
2022-11-17T16:21:38.279Z,95732.00
2022-11-17T16:24:08.267Z,95728.31
2022-11-17T16:26:37.578Z,95728.16
2022-11-17T16:29:07.061Z,95723.50
2022-11-17T16:31:35.939Z,95736.81
2022-11-17T16:34:05.764Z,95729.56
2022-11-17T16:36:37.158Z,95721.50
2022-11-17T16:39:06.519Z,95721.50
2022-11-17T16:41:35.432Z,95724.19
2022-11-17T16:44:03.790Z,95734.13
2022-11-17T16:46:32.590Z,95737.63
2022-11-17T16:49:02.825Z,95734.84
2022-11-17T16:51:31.181Z,95738.50
2022-11-17T16:54:01.620Z,95745.56
2022-11-17T16:56:30.017Z,95750.09
2022-11-17T16:58:58.868Z,95744.00
2022-11-17T17:01:28.084Z,95755.63
2022-11-17T17:03:57.277Z,95750.34
2022-11-17T17:06:25.480Z,95753.91
2022-11-17T17:08:56.679Z,95751.22
2022-11-17T17:11:27.370Z,95742.44
2022-11-17T17:13:56.549Z,95755.88
2022-11-17T17:16:25.175Z,95748.69
2022-11-17T17:18:55.851Z,95750.78
2022-11-17T17:21:24.661Z,95761.97
2022-11-17T17:23:53.016Z,95768.75
2022-11-17T17:26:22.562Z,95765.91
2022-11-17T17:28:53.386Z,95765.91
2022-11-17T17:31:22.594Z,95771.28
2022-11-17T17:33:51.333Z,95777.53
2022-11-17T17:36:20.727Z,95776.53
2022-11-17T17:38:55.177Z,95770.44
2022-11-17T17:41:24.887Z,95773.97
2022-11-17T17:43:57.896Z,95780.22
2022-11-17T17:46:26.340Z,95779.34
2022-11-17T17:48:54.618Z,95779.22
2022-11-17T17:51:25.115Z,95787.25
2022-11-17T17:53:53.522Z,95783.75
2022-11-17T17:56:22.180Z,95789.13
2022-11-17T17:58:51.105Z,95797.03
2022-11-17T18:01:21.711Z,95793.22
2022-11-17T18:03:51.148Z,95800.13
2022-11-17T18:06:21.208Z,95793.09
2022-11-17T18:08:50.233Z,95794.66
2022-11-17T18:11:19.619Z,95793.94
2022-11-17T18:13:48.623Z,95800.13
2022-11-17T18:16:17.473Z,95797.44
2022-11-17T18:18:47.420Z,95801.84
2022-11-17T18:21:16.839Z,95801.84
2022-11-17T18:23:45.355Z,95803.69
2022-11-17T18:26:15.796Z,95806.38
2022-11-17T18:28:45.053Z,95800.13
2022-11-17T18:31:13.335Z,95805.41
2022-11-17T18:33:41.597Z,95806.22
2022-11-17T18:36:11.676Z,95800.84
2022-11-17T18:38:40.096Z,95808.09
2022-11-17T18:41:09.213Z,95808.09
2022-11-17T18:43:37.587Z,95808.78
2022-11-17T18:46:06.398Z,95806.94
2022-11-17T18:48:34.951Z,95812.31
2022-11-17T18:51:20.405Z,95803.41
2022-11-17T18:53:50.636Z,95796.19
2022-11-17T18:56:19.784Z,95797.88
2022-11-17T18:58:48.236Z,95790.81
2022-11-17T19:01:17.393Z,95783.59
2022-11-17T19:03:46.600Z,95781.63
2022-11-17T19:06:15.493Z,95771.03
2022-11-17T19:08:44.005Z,95770.00
2022-11-17T19:11:13.908Z,95770.88
2022-11-17T19:13:43.176Z,95773.56
2022-11-17T19:16:12.552Z,95783.34
2022-11-17T19:18:40.995Z,95776.94
2022-11-17T19:21:10.315Z,95769.91
2022-11-17T19:23:39.184Z,95765.34
2022-11-17T19:26:08.505Z,95761.53
2022-11-17T19:28:39.638Z,95757.00
2022-11-17T19:31:08.838Z,95760.56
2022-11-17T19:33:37.704Z,95760.56
2022-11-17T19:36:07.061Z,95772.13
2022-11-17T19:38:35.500Z,95777.50
2022-11-17T19:41:04.698Z,95777.50
2022-11-17T19:43:33.236Z,95773.00
2022-11-17T19:46:03.876Z,95777.38
2022-11-17T19:48:32.225Z,95771.16
2022-11-17T19:51:01.117Z,95777.38
2022-11-17T19:53:29.530Z,95766.63
2022-11-17T19:56:00.648Z,95773.84
2022-11-17T19:58:31.738Z,95779.06
2022-11-17T20:01:00.130Z,95776.38
2022-11-17T20:03:29.933Z,95777.25
2022-11-17T20:06:00.935Z,95776.22
2022-11-17T20:08:30.252Z,95772.72
2022-11-17T20:11:05.038Z,95771.72
2022-11-17T20:13:33.496Z,95768.16
2022-11-17T20:16:02.403Z,95767.19
2022-11-17T20:18:33.533Z,95768.03
2022-11-17T20:21:04.799Z,95772.41
2022-11-17T20:23:34.045Z,95766.91
2022-11-17T20:26:04.734Z,95762.38
2022-11-17T20:28:34.008Z,95763.22
2022-11-17T20:31:07.460Z,95768.72
2022-11-17T20:33:37.220Z,95764.22
2022-11-17T20:36:06.661Z,95761.53
2022-11-17T20:38:36.002Z,95756.28
2022-11-17T20:41:05.859Z,95760.81
2022-11-17T20:43:34.312Z,95765.34
2022-11-17T20:46:02.711Z,95761.81
2022-11-17T20:48:34.270Z,95767.19
2022-11-17T20:51:05.343Z,95764.50
2022-11-17T20:53:33.675Z,95761.81
2022-11-17T20:56:02.725Z,95769.03
2022-11-17T20:58:31.087Z,95759.28
2022-11-17T21:00:59.515Z,95762.78
2022-11-17T21:03:28.159Z,95777.09
2022-11-17T21:05:58.810Z,95761.97
2022-11-17T21:08:30.708Z,95760.25
2022-11-17T21:10:59.327Z,95760.25
2022-11-17T21:13:27.648Z,95762.09
2022-11-17T21:16:09.821Z,95760.41
2022-11-17T21:18:38.700Z,95757.72
2022-11-17T21:21:09.100Z,95758.56
2022-11-17T21:23:39.350Z,95757.72
2022-11-17T21:26:07.952Z,95765.78
2022-11-17T21:28:36.615Z,95760.56
2022-11-17T21:31:07.895Z,95759.69
2022-11-17T21:33:36.268Z,95759.69
2022-11-17T21:36:05.080Z,95761.38
2022-11-17T21:38:33.407Z,95764.06
2022-11-17T21:41:06.320Z,95770.31
2022-11-17T21:43:37.222Z,95768.47
2022-11-17T21:46:05.871Z,95762.09
2022-11-17T21:48:34.499Z,95757.72
2022-11-17T21:51:02.906Z,95764.06
2022-11-17T21:53:31.207Z,95761.53
2022-11-17T21:56:02.634Z,95744.56
2022-11-17T21:58:32.406Z,95741.16
2022-11-17T22:01:00.795Z,95738.47
2022-11-17T22:03:29.479Z,95737.78
2022-11-17T22:06:06.596Z,95726.19
2022-11-17T22:08:36.958Z,95725.34
2022-11-17T22:11:06.348Z,95730.72
2022-11-17T22:13:36.064Z,95736.25
2022-11-17T22:16:05.634Z,95721.94
2022-11-17T22:18:34.056Z,95720.22
2022-11-17T22:21:02.281Z,95722.09
2022-11-17T22:23:30.660Z,95723.94
2022-11-17T22:26:00.378Z,95715.00
2022-11-17T22:28:28.895Z,95716.84
2022-11-17T22:30:58.611Z,95706.97
2022-11-17T22:33:27.031Z,95700.72
2022-11-17T22:35:55.449Z,95690.97
2022-11-17T22:38:25.633Z,95686.59
2022-11-17T22:40:53.912Z,95683.06
2022-11-17T22:43:22.448Z,95684.91
2022-11-17T22:45:50.808Z,95688.56
2022-11-17T22:48:20.661Z,95678.84
2022-11-17T22:50:48.945Z,95676.16
2022-11-17T22:53:17.160Z,95675.28
2022-11-17T22:55:45.471Z,95673.59
2022-11-17T22:58:16.035Z,95668.22
2022-11-17T23:00:44.636Z,95663.84
2022-11-17T23:03:13.106Z,95653.25
2022-11-17T23:05:42.887Z,95651.53
2022-11-17T23:08:11.179Z,95641.63
2022-11-17T23:10:39.744Z,95637.13
2022-11-17T23:13:08.261Z,95630.03
2022-11-17T23:15:39.292Z,95621.28
2022-11-17T23:18:07.608Z,95618.47
2022-11-17T23:20:37.855Z,95611.53
2022-11-17T23:23:07.613Z,95616.91
2022-11-17T23:25:36.057Z,95615.22
2022-11-17T23:28:04.372Z,95626.81
2022-11-17T23:30:32.956Z,95631.31
2022-11-17T23:33:01.199Z,95633.31
2022-11-17T23:35:29.712Z,95636.84
2022-11-17T23:37:57.989Z,95631.47
2022-11-17T23:40:28.017Z,95630.78
2022-11-17T23:42:56.305Z,95627.13
2022-11-17T23:45:24.553Z,95630.78
2022-11-17T23:47:52.894Z,95634.31
2022-11-17T23:50:21.253Z,95621.03
2022-11-17T23:52:49.476Z,95621.03
2022-11-17T23:55:17.823Z,95618.34
2022-11-17T23:57:47.525Z,95626.41
